Time;durP1;ratioP1;P1;durP2;ratioP2;P2;SDS_P1;SDS_P2;PMS_P1;PMS_P2;Temp;Humidity;BMP_temperature;BMP_pressure;BME280_temperature;BME280_humidity;BME280_pressure;Samples;Min_cycle;Max_cycle;Signal;HPM_P1;HPM_P2
2023/08/15 00:00:32;;;;;;;5.60;3.90;;;;;;;20.74;70.70;101326.66;7404512;19;19921;-77
2023/08/15 00:03:04;;;;;;;8.00;3.67;;;;;;;20.72;70.90;101326.06;7403287;19;19931;-77
2023/08/15 00:05:33;;;;;;;6.30;3.47;;;;;;;20.71;71.26;101321.66;7404790;19;19922;-77
2023/08/15 00:08:01;;;;;;;7.47;3.80;;;;;;;20.70;70.57;101320.00;7402177;19;20422;-77
2023/08/15 00:10:30;;;;;;;5.30;3.53;;;;;;;20.69;70.40;101313.69;7403484;19;19922;-77
2023/08/15 00:12:59;;;;;;;8.98;3.60;;;;;;;20.69;71.08;101312.84;7403289;19;19941;-78
2023/08/15 00:15:27;;;;;;;8.10;3.90;;;;;;;20.65;70.95;101315.22;7401136;19;20011;-77
2023/08/15 00:17:56;;;;;;;7.80;2.95;;;;;;;20.61;71.05;101324.97;7402810;19;19926;-77
2023/08/15 00:20:27;;;;;;;7.00;3.72;;;;;;;20.57;71.44;101306.50;7403238;19;19919;-78
2023/08/15 00:22:56;;;;;;;4.15;3.30;;;;;;;20.56;70.82;101311.13;7402074;19;20379;-78
2023/08/15 00:25:24;;;;;;;7.90;3.15;;;;;;;20.57;70.92;101311.97;7404676;19;20395;-78
2023/08/15 00:27:53;;;;;;;5.25;3.50;;;;;;;20.52;71.15;101296.22;7404613;19;20285;-78
2023/08/15 00:30:22;;;;;;;7.43;3.40;;;;;;;20.47;71.60;101303.47;7403531;19;19918;-78
2023/08/15 00:32:50;;;;;;;8.45;3.22;;;;;;;20.41;71.31;101305.22;7403952;19;19926;-78
2023/08/15 00:35:19;;;;;;;6.53;3.50;;;;;;;20.37;71.33;101304.00;7403526;19;19918;-78
2023/08/15 00:37:50;;;;;;;6.78;3.35;;;;;;;20.32;71.28;101298.41;7401385;19;19937;-78
2023/08/15 00:40:19;;;;;;;7.22;3.72;;;;;;;20.28;71.47;101299.88;7402362;19;20281;-79
2023/08/15 00:42:48;;;;;;;6.38;3.78;;;;;;;20.23;71.46;101302.50;7402716;19;19935;-78
2023/08/15 00:45:16;;;;;;;8.20;4.20;;;;;;;20.20;72.11;101298.31;7402784;19;19915;-78
2023/08/15 00:47:45;;;;;;;6.05;4.20;;;;;;;20.17;71.78;101303.41;7403197;19;19930;-78
2023/08/15 00:50:14;;;;;;;4.32;3.60;;;;;;;20.13;72.11;101302.19;7402873;19;19927;-78
2023/08/15 00:52:43;;;;;;;3.92;3.20;;;;;;;20.06;72.09;101294.09;7402814;19;19925;-79
2023/08/15 00:55:15;;;;;;;4.43;3.67;;;;;;;20.02;72.02;101302.97;7403171;19;19932;-78
2023/08/15 00:57:43;;;;;;;7.28;4.00;;;;;;;19.97;72.68;101298.19;7403590;19;19925;-78
2023/08/15 01:00:13;;;;;;;5.68;3.58;;;;;;;19.92;72.38;101307.06;7403036;19;19926;-78
2023/08/15 01:02:44;;;;;;;7.30;3.75;;;;;;;19.90;72.31;101306.44;7402723;19;19926;-78
2023/08/15 01:05:14;;;;;;;5.80;3.47;;;;;;;19.87;72.48;101304.19;7403092;19;19922;-78
2023/08/15 01:07:42;;;;;;;4.68;3.50;;;;;;;19.84;72.48;101304.66;7403226;19;20359;-79
2023/08/15 01:10:11;;;;;;;7.75;4.38;;;;;;;19.84;72.44;101312.84;7402719;19;19939;-78
2023/08/15 01:12:49;;;;;;;7.38;3.58;;;;;;;19.80;72.71;101297.13;7403480;19;19922;-78
2023/08/15 01:15:23;;;;;;;4.78;3.38;;;;;;;19.79;73.06;101301.75;7402539;19;19914;-77
2023/08/15 01:17:57;;;;;;;5.63;3.45;;;;;;;19.75;72.92;101300.53;7401544;19;20325;-78
2023/08/15 01:20:33;;;;;;;7.95;3.65;;;;;;;19.71;73.38;101301.22;7402191;19;19935;-79
2023/08/15 01:23:03;;;;;;;9.18;3.70;;;;;;;19.71;72.94;101287.53;7401126;19;19927;-78
2023/08/15 01:25:41;;;;;;;6.18;3.90;;;;;;;19.66;73.33;101280.03;7398830;19;19942;-78
2023/08/15 01:28:14;;;;;;;8.57;4.13;;;;;;;19.69;73.13;101284.19;7400837;19;19923;-78
2023/08/15 01:30:46;;;;;;;9.77;4.03;;;;;;;19.70;72.93;101292.19;7401384;19;19922;-78
2023/08/15 01:33:21;;;;;;;7.40;4.10;;;;;;;19.68;72.61;101294.28;7401068;19;19917;-78
2023/08/15 01:35:57;;;;;;;6.40;3.92;;;;;;;19.71;72.72;101284.81;7400564;19;19922;-78
2023/08/15 01:38:31;;;;;;;7.28;4.10;;;;;;;19.72;72.33;101276.38;7401648;19;19914;-78
2023/08/15 01:41:04;;;;;;;6.78;3.97;;;;;;;19.70;72.67;101270.31;7400414;19;19914;-78
2023/08/15 01:43:36;;;;;;;8.27;4.50;;;;;;;19.72;72.68;101273.63;7400727;19;19919;-78
2023/08/15 01:46:05;;;;;;;11.00;4.13;;;;;;;19.69;72.62;101271.34;7401852;19;19914;-78
2023/08/15 01:48:34;;;;;;;6.05;3.75;;;;;;;19.67;72.79;101278.97;7401536;19;19922;-79
2023/08/15 01:51:02;;;;;;;7.55;4.13;;;;;;;19.65;72.73;101272.88;7401789;19;19910;-78
2023/08/15 01:53:31;;;;;;;6.47;3.80;;;;;;;19.62;72.67;101267.88;7400441;19;20317;-78
2023/08/15 01:56:02;;;;;;;8.43;3.80;;;;;;;19.62;72.73;101259.66;7400041;19;19926;-78
2023/08/15 01:58:31;;;;;;;5.57;3.83;;;;;;;19.59;73.07;101268.31;7400462;19;19914;-78
2023/08/15 02:01:00;;;;;;;8.65;3.97;;;;;;;19.59;73.13;101273.78;7399843;19;20287;-79
2023/08/15 02:03:29;;;;;;;7.32;3.80;;;;;;;19.58;72.70;101266.66;7398692;19;19915;-78
2023/08/15 02:05:58;;;;;;;6.97;4.25;;;;;;;19.58;73.40;101263.09;7399802;19;20347;-78
2023/08/15 02:08:27;;;;;;;5.45;3.33;;;;;;;19.58;73.04;101260.34;7399980;19;20279;-78
2023/08/15 02:10:55;;;;;;;7.97;4.63;;;;;;;19.55;73.02;101249.84;7399312;19;19938;-78
2023/08/15 02:13:30;;;;;;;7.80;4.15;;;;;;;19.54;73.14;101251.78;7400571;19;19918;-78
2023/08/15 02:15:59;;;;;;;11.82;4.45;;;;;;;19.52;72.97;101253.88;7399108;19;19982;-78
2023/08/15 02:18:28;;;;;;;6.82;4.30;;;;;;;19.51;73.16;101260.41;7399613;19;19919;-79
2023/08/15 02:20:57;;;;;;;5.88;4.15;;;;;;;19.50;73.16;101257.91;7399522;19;19935;-78
2023/08/15 02:23:26;;;;;;;8.18;4.80;;;;;;;19.46;73.74;101257.50;7398353;19;20288;-78
2023/08/15 02:25:54;;;;;;;10.07;4.57;;;;;;;19.44;73.53;101248.72;7399979;19;19919;-78
2023/08/15 02:28:23;;;;;;;7.45;4.60;;;;;;;19.39;73.63;101243.91;7400655;19;19914;-79
2023/08/15 02:30:54;;;;;;;7.18;3.72;;;;;;;19.33;74.11;101235.75;7400779;19;19922;-79
2023/08/15 02:33:23;;;;;;;8.07;4.50;;;;;;;19.31;74.06;101226.97;7400425;19;19918;-78
2023/08/15 02:35:55;;;;;;;4.78;3.65;;;;;;;19.27;74.01;101226.59;7399890;19;20340;-77
2023/08/15 02:38:24;;;;;;;7.18;4.50;;;;;;;19.24;74.66;101215.28;7406225;19;20357;-78
2023/08/15 02:40:53;;;;;;;8.20;4.38;;;;;;;19.23;74.18;101217.16;7404471;19;20345;-78
2023/08/15 02:43:21;;;;;;;9.77;4.75;;;;;;;19.22;74.35;101228.31;7405738;19;19915;-78
2023/08/15 02:45:50;;;;;;;11.10;5.43;;;;;;;19.19;74.31;101234.22;7407796;19;20362;-78
2023/08/15 02:48:21;;;;;;;8.13;4.28;;;;;;;19.17;74.83;101239.06;7409084;19;19907;-77
2023/08/15 02:50:49;;;;;;;7.60;4.80;;;;;;;19.17;74.85;101247.25;7409082;19;19931;-78
2023/08/15 02:53:18;;;;;;;9.82;4.72;;;;;;;19.15;74.77;101243.94;7407314;19;20237;-79
2023/08/15 02:55:51;;;;;;;8.40;4.45;;;;;;;19.15;74.74;101249.41;7407450;19;19933;-78
2023/08/15 02:58:20;;;;;;;9.43;5.30;;;;;;;19.12;74.82;101260.75;7405845;19;19926;-78
2023/08/15 03:00:48;;;;;;;7.68;5.07;;;;;;;19.11;74.88;101254.47;7406480;19;20363;-78
2023/08/15 03:03:17;;;;;;;7.88;4.53;;;;;;;19.11;75.03;101268.13;7405395;19;19915;-78
2023/08/15 03:05:49;;;;;;;10.27;5.45;;;;;;;19.10;75.47;101252.78;7405751;19;19919;-78
2023/08/15 03:08:17;;;;;;;10.30;5.35;;;;;;;19.09;75.29;101244.81;7406030;19;19969;-78
2023/08/15 03:10:46;;;;;;;8.13;4.97;;;;;;;19.09;76.19;101242.09;7405771;19;19918;-77
2023/08/15 03:13:14;;;;;;;9.65;5.45;;;;;;;19.09;75.63;101251.13;7406539;19;19974;-78
2023/08/15 03:15:43;;;;;;;10.18;5.72;;;;;;;19.10;76.30;101241.03;7405081;19;19915;-78
2023/08/15 03:18:12;;;;;;;7.50;5.90;;;;;;;19.12;76.26;101241.63;7405546;19;20286;-78
2023/08/15 03:20:40;;;;;;;8.73;5.13;;;;;;;19.13;76.12;101238.69;7404958;19;19919;-78
2023/08/15 03:23:12;;;;;;;11.02;5.75;;;;;;;19.13;76.66;101248.78;7403422;19;20554;-78
2023/08/15 03:25:40;;;;;;;;;;;;;;;18.86;78.65;101251.72;7407527;19;19958;-78
2023/08/15 03:28:09;;;;;;;11.13;6.63;;;;;;;19.03;76.95;101262.94;7405128;19;20260;-78
2023/08/15 03:30:37;;;;;;;13.57;6.35;;;;;;;19.06;77.08;101251.56;7404835;19;19943;-78
2023/08/15 03:33:07;;;;;;;11.77;6.00;;;;;;;19.08;76.71;101243.13;7405475;19;19915;-78
2023/08/15 03:35:35;;;;;;;11.23;5.95;;;;;;;19.10;76.84;101249.22;7405595;19;20252;-77
2023/08/15 03:38:04;;;;;;;8.65;5.82;;;;;;;19.10;77.07;101249.22;7403274;19;19926;-77
2023/08/15 03:40:35;;;;;;;9.68;6.07;;;;;;;19.13;77.37;101246.03;7403633;19;19919;-78
2023/08/15 03:43:04;;;;;;;9.05;6.05;;;;;;;19.11;77.98;101243.56;7404501;19;19914;-78
2023/08/15 03:45:32;;;;;;;9.43;5.97;;;;;;;19.12;77.30;101249.81;7404708;19;20284;-78
2023/08/15 03:48:01;;;;;;;8.65;6.05;;;;;;;19.11;77.87;101246.28;7403541;19;19937;-78
2023/08/15 03:50:29;;;;;;;9.20;6.07;;;;;;;19.12;77.71;101244.34;7403212;19;19935;-77
2023/08/15 03:52:58;;;;;;;11.65;5.85;;;;;;;19.08;77.68;101245.88;7404490;19;19954;-78
2023/08/15 03:55:27;;;;;;;12.43;7.07;;;;;;;19.05;78.66;101241.69;7403994;19;19935;-78
2023/08/15 03:57:58;;;;;;;10.27;6.75;;;;;;;19.03;78.25;101231.00;7403926;19;20289;-78
2023/08/15 04:00:27;;;;;;;12.23;6.22;;;;;;;19.03;78.39;101233.72;7403671;19;19915;-78
2023/08/15 04:02:56;;;;;;;11.70;6.82;;;;;;;19.05;78.77;101238.97;7404184;19;19919;-78
2023/08/15 04:05:24;;;;;;;10.98;6.63;;;;;;;19.02;78.62;101234.81;7404766;19;19910;-78
2023/08/15 04:07:53;;;;;;;8.85;6.80;;;;;;;19.02;78.82;101231.25;7404783;19;19930;-78
2023/08/15 04:10:22;;;;;;;10.88;7.03;;;;;;;19.00;78.75;101241.53;7404619;19;20388;-78
2023/08/15 04:12:51;;;;;;;9.10;6.90;;;;;;;18.99;78.76;101237.97;7406670;19;20546;-78
2023/08/15 04:15:22;;;;;;;11.05;6.45;;;;;;;18.97;79.57;101229.19;7404187;19;19918;-78
2023/08/15 04:17:51;;;;;;;9.88;7.30;;;;;;;18.99;79.35;101229.78;7404080;19;19937;-77
2023/08/15 04:20:19;;;;;;;11.10;7.53;;;;;;;19.02;79.60;101228.50;7403735;19;19919;-77
2023/08/15 04:22:48;;;;;;;10.50;7.18;;;;;;;19.03;79.28;101225.53;7404372;19;19964;-78
2023/08/15 04:25:17;;;;;;;10.88;7.10;;;;;;;19.02;79.63;101212.97;7404368;19;19922;-77
2023/08/15 04:27:46;;;;;;;14.57;7.60;;;;;;;19.02;80.33;101212.97;7403594;19;19914;-78
2023/08/15 04:30:14;;;;;;;12.70;7.32;;;;;;;19.01;79.76;101219.47;7405855;19;19911;-76
2023/08/15 04:32:46;;;;;;;12.82;7.38;;;;;;;19.02;80.33;101212.97;7405033;19;19922;-77
2023/08/15 04:35:14;;;;;;;13.43;7.80;;;;;;;19.04;80.27;101226.38;7404215;19;19922;-78
2023/08/15 04:37:45;;;;;;;14.68;8.13;;;;;;;19.04;81.13;101226.38;7403163;19;20008;-78
2023/08/15 04:40:15;;;;;;;11.48;8.00;;;;;;;19.08;80.46;101229.47;7402298;19;19996;-77
2023/08/15 04:42:44;;;;;;;11.38;7.65;;;;;;;19.06;80.81;101228.88;7403635;19;20253;-77
2023/08/15 04:45:12;;;;;;;12.27;8.13;;;;;;;19.07;80.93;101228.66;7401748;19;19918;-78
2023/08/15 04:47:41;;;;;;;12.77;8.85;;;;;;;19.06;81.07;101231.63;7403730;19;20328;-77
2023/08/15 04:50:12;;;;;;;13.65;8.70;;;;;;;19.04;81.67;101232.66;7403184;19;19935;-78
2023/08/15 04:52:41;;;;;;;;;;;;;;;18.84;84.55;101232.00;7405953;19;19915;-79
2023/08/15 04:55:13;;;;;;;15.68;8.82;;;;;;;19.00;81.90;101236.91;7403875;19;19938;-77
2023/08/15 04:57:41;;;;;;;14.30;8.73;;;;;;;19.03;82.02;101252.00;7403437;19;19949;-78
2023/08/15 05:00:12;;;;;;;14.00;9.23;;;;;;;19.02;82.32;101253.91;7401700;19;19931;-77
2023/08/15 05:02:40;;;;;;;13.65;8.20;;;;;;;19.06;82.44;101242.53;7401980;19;19919;-78
2023/08/15 05:05:12;;;;;;;15.77;9.25;;;;;;;19.08;82.38;101265.00;7400801;19;20652;-78
2023/08/15 05:07:41;;;;;;;15.15;9.45;;;;;;;19.08;83.52;101273.19;7402340;19;19982;-78
2023/08/15 05:10:11;;;;;;;15.32;9.32;;;;;;;19.10;82.99;101291.03;7402007;19;19918;-78
2023/08/15 05:12:39;;;;;;;16.00;9.77;;;;;;;19.08;83.48;101287.69;7403874;19;19919;-78
2023/08/15 05:15:10;;;;;;;16.98;10.18;;;;;;;19.09;83.96;101291.25;7402008;19;19914;-77
2023/08/15 05:17:39;;;;;;;13.10;9.20;;;;;;;19.09;84.60;101302.16;7402072;19;19939;-77
2023/08/15 05:20:09;;;;;;;14.25;8.98;;;;;;;19.09;84.97;101324.03;7402342;19;19938;-77
2023/08/15 05:22:40;;;;;;;11.75;9.00;;;;;;;19.10;84.53;101331.16;7402152;19;19926;-77
2023/08/15 05:25:10;;;;;;;15.23;9.63;;;;;;;19.09;84.89;101321.28;7400693;19;19918;-77
2023/08/15 05:27:39;;;;;;;13.25;9.93;;;;;;;19.12;85.51;101323.56;7401490;19;19919;-76
2023/08/15 05:30:09;;;;;;;14.73;9.57;;;;;;;19.13;85.03;101323.34;7400628;19;19990;-77
2023/08/15 05:32:38;;;;;;;14.60;9.60;;;;;;;19.14;85.36;101307.81;7400754;19;20280;-77
2023/08/15 05:35:07;;;;;;;14.35;10.05;;;;;;;19.16;85.29;101303.78;7400560;19;19942;-77
2023/08/15 05:37:36;;;;;;;13.82;9.15;;;;;;;19.16;85.66;101289.28;7399721;19;20257;-76
2023/08/15 05:40:08;;;;;;;13.00;8.88;;;;;;;19.16;85.59;101289.28;7401847;19;19936;-77
2023/08/15 05:42:36;;;;;;;16.38;10.02;;;;;;;19.18;85.40;101300.84;7402983;19;19914;-78
2023/08/15 05:45:05;;;;;;;15.73;9.68;;;;;;;19.19;85.35;101306.09;7400928;19;20260;-77
2023/08/15 05:47:34;;;;;;;16.38;9.38;;;;;;;19.20;85.38;101315.13;7401880;19;20011;-77
2023/08/15 05:50:02;;;;;;;14.88;9.60;;;;;;;19.23;85.21;101317.41;7401038;19;20344;-77
2023/08/15 05:52:31;;;;;;;17.27;9.75;;;;;;;19.27;85.41;101322.19;7400650;19;19942;-77
2023/08/15 05:55:00;;;;;;;16.80;9.43;;;;;;;19.29;85.29;101321.94;7400529;19;19922;-76
2023/08/15 05:57:31;;;;;;;13.88;8.40;;;;;;;19.30;85.81;101329.09;7401172;19;19931;-76
2023/08/15 05:59:59;;;;;;;13.65;8.25;;;;;;;19.32;85.41;101336.03;7400535;19;20363;-76
2023/08/15 06:02:28;;;;;;;14.50;9.32;;;;;;;19.32;86.15;101349.69;7401009;19;19907;-76
2023/08/15 06:04:57;;;;;;;15.32;9.45;;;;;;;19.35;85.57;101349.22;7399864;19;19922;-77
2023/08/15 06:07:25;;;;;;;14.93;9.60;;;;;;;19.38;85.93;101347.94;7401254;19;19911;-76
2023/08/15 06:09:54;;;;;;;17.08;8.25;;;;;;;19.40;85.38;101359.50;7401397;19;20422;-76
2023/08/15 06:12:23;;;;;;;19.80;9.02;;;;;;;19.43;85.22;101361.81;7405547;19;19926;-77
2023/08/15 06:14:54;;;;;;;14.23;9.70;;;;;;;19.46;85.89;101361.34;7407284;19;19988;-77
2023/08/15 06:17:23;;;;;;;14.35;8.90;;;;;;;19.50;85.15;101367.22;7407535;19;20019;-77
2023/08/15 06:19:53;;;;;;;14.48;8.30;;;;;;;19.48;85.25;101378.38;7407374;19;19935;-77
2023/08/15 06:22:21;;;;;;;16.50;9.23;;;;;;;19.47;85.37;101387.63;7407487;19;19919;-76
2023/08/15 06:24:50;;;;;;;14.63;8.77;;;;;;;19.45;85.14;101390.59;7405734;19;19923;-77
2023/08/15 06:27:21;;;;;;;13.18;7.85;;;;;;;19.46;84.84;101405.06;7408136;19;19918;-76
2023/08/15 06:29:50;;;;;;;12.93;7.78;;;;;;;19.44;84.77;101402.59;7406886;19;19914;-76
2023/08/15 06:32:32;;;;;;;12.15;7.68;;;;;;;19.38;84.76;101403.44;7407996;19;19914;-77
2023/08/15 06:35:03;;;;;;;10.02;6.35;;;;;;;19.43;83.90;101406.38;7406405;19;19919;-76
2023/08/15 06:37:31;;;;;;;12.50;5.70;;;;;;;19.44;83.40;101418.13;7404064;19;19926;-76
2023/08/15 06:40:00;;;;;;;9.98;5.85;;;;;;;19.44;83.00;101412.69;7405318;19;19918;-76
2023/08/15 06:42:29;;;;;;;13.02;5.93;;;;;;;19.42;82.79;101410.13;7406904;19;19938;-76
2023/08/15 06:45:06;;;;;;;7.03;4.70;;;;;;;19.40;82.86;101408.69;7404419;19;19925;-76
2023/08/15 06:47:38;;;;;;;8.63;4.40;;;;;;;19.40;82.05;101412.25;7406816;19;19914;-76
2023/08/15 06:50:09;;;;;;;7.65;4.05;;;;;;;19.43;81.60;101411.00;7406071;19;19918;-76
2023/08/15 06:52:37;;;;;;;6.32;4.15;;;;;;;19.41;81.88;101408.47;7405818;19;19914;-76
2023/08/15 06:55:07;;;;;;;7.38;4.90;;;;;;;19.41;82.41;101421.28;7405657;19;19915;-76
2023/08/15 06:57:36;;;;;;;7.50;5.10;;;;;;;19.38;82.01;101429.91;7405767;19;19919;-76
2023/08/15 07:00:09;;;;;;;9.82;4.90;;;;;;;19.37;81.73;101428.25;7404770;19;19948;-76
2023/08/15 07:02:41;;;;;;;6.85;4.40;;;;;;;19.34;81.73;101432.25;7404504;19;19911;-76
2023/08/15 07:05:10;;;;;;;7.75;5.18;;;;;;;19.38;81.44;101443.56;7402749;19;20363;-76
2023/08/15 07:07:39;;;;;;;8.20;5.10;;;;;;;19.45;81.26;101438.94;7404371;19;19954;-76
2023/08/15 07:10:10;;;;;;;9.85;4.60;;;;;;;19.56;81.18;101449.16;7404473;19;19941;-76
2023/08/15 07:12:39;;;;;;;9.20;4.90;;;;;;;19.66;80.73;101446.78;7406965;19;19929;-76
2023/08/15 07:15:09;;;;;;;9.88;5.07;;;;;;;19.74;80.29;101441.03;7405538;19;20403;-77
2023/08/15 07:17:40;;;;;;;9.25;4.75;;;;;;;19.76;80.41;101444.34;7405019;19;19942;-77
2023/08/15 07:20:13;;;;;;;11.15;4.53;;;;;;;19.82;80.01;101448.09;7404814;19;20289;-76
2023/08/15 07:22:42;;;;;;;8.60;3.60;;;;;;;19.85;79.41;101470.34;7403933;19;20395;-76
2023/08/15 07:25:11;;;;;;;9.90;3.65;;;;;;;19.92;79.22;101465.69;7401087;19;20363;-76
2023/08/15 07:27:40;;;;;;;9.02;3.55;;;;;;;19.94;78.89;101458.09;7404551;19;19918;-76
2023/08/15 07:30:11;;;;;;;10.07;3.30;;;;;;;19.92;79.37;101454.75;7404633;19;19951;-77
2023/08/15 07:32:42;;;;;;;9.13;4.13;;;;;;;19.92;79.46;101446.53;7405121;19;19911;-77
2023/08/15 07:35:11;;;;;;;5.43;3.58;;;;;;;19.94;79.87;101446.31;7404560;19;20293;-76
2023/08/15 07:37:40;;;;;;;7.95;4.20;;;;;;;19.98;79.43;101457.63;7403034;19;19926;-77
2023/08/15 07:40:12;;;;;;;8.10;4.30;;;;;;;19.98;79.16;101453.00;7403604;19;19942;-76
2023/08/15 07:42:42;;;;;;;6.45;3.55;;;;;;;19.98;79.60;101453.00;7404589;19;19919;-75
2023/08/15 07:45:12;;;;;;;5.63;3.30;;;;;;;20.02;79.09;101459.69;7403184;19;19923;-76
2023/08/15 07:47:44;;;;;;;9.48;3.13;;;;;;;20.06;78.99;101463.69;7405377;19;19935;-77
2023/08/15 07:50:18;;;;;;;6.93;3.13;;;;;;;20.11;78.38;101471.19;7404416;19;19915;-77
2023/08/15 07:52:47;;;;;;;7.40;3.67;;;;;;;20.18;78.59;101463.75;7404296;19;19950;-76
2023/08/15 07:55:16;;;;;;;8.77;3.45;;;;;;;20.24;78.16;101476.53;7404230;19;20344;-77
2023/08/15 07:57:45;;;;;;;7.75;2.92;;;;;;;20.26;77.57;101477.16;7403870;19;19918;-77
2023/08/15 08:00:15;;;;;;;10.93;3.30;;;;;;;20.29;77.67;101482.16;7402827;19;20245;-77
2023/08/15 08:02:47;;;;;;;8.63;3.15;;;;;;;20.28;77.77;101481.31;7403022;19;19914;-76
2023/08/15 08:05:16;;;;;;;7.68;3.33;;;;;;;20.30;78.07;101490.19;7402631;19;19919;-76
2023/08/15 08:07:46;;;;;;;8.55;3.30;;;;;;;20.33;77.99;101487.00;7403622;19;20256;-77
2023/08/15 08:10:15;;;;;;;5.70;3.40;;;;;;;20.38;77.47;101489.88;7404730;19;19923;-77
2023/08/15 08:12:45;;;;;;;10.82;3.20;;;;;;;20.40;77.73;101497.88;7407589;19;19930;-76
2023/08/15 08:15:14;;;;;;;7.38;3.45;;;;;;;20.41;77.44;101496.00;7403877;19;19958;-76
2023/08/15 08:17:45;;;;;;;6.32;2.72;;;;;;;20.45;77.60;101497.19;7404061;19;19914;-76
2023/08/15 08:20:16;;;;;;;7.95;3.47;;;;;;;20.52;77.10;101497.97;7403679;19;19922;-76
2023/08/15 08:22:44;;;;;;;6.43;2.63;;;;;;;20.58;76.90;101497.06;7403370;19;19919;-76
2023/08/15 08:25:16;;;;;;;9.77;2.75;;;;;;;20.68;76.90;101502.81;7402151;19;19918;-76
2023/08/15 08:27:45;;;;;;;4.20;1.85;;;;;;;20.73;76.27;101508.47;7403791;19;19976;-76
2023/08/15 08:30:15;;;;;;;6.28;1.92;;;;;;;20.78;76.24;101516.81;7404210;19;19919;-76
2023/08/15 08:32:46;;;;;;;8.23;2.78;;;;;;;20.82;76.22;101527.09;7404677;19;19923;-76
2023/08/15 08:35:16;;;;;;;7.40;2.10;;;;;;;20.89;75.39;101534.38;7403646;19;19919;-76
2023/08/15 08:37:46;;;;;;;5.65;2.15;;;;;;;21.00;75.36;101545.44;7402812;19;19932;-76
2023/08/15 08:40:16;;;;;;;8.60;2.10;;;;;;;21.05;74.61;101536.53;7405077;19;19921;-76
2023/08/15 08:42:45;;;;;;;4.20;1.90;;;;;;;21.06;74.32;101546.41;7404258;19;19919;-76
2023/08/15 08:45:14;;;;;;;5.32;2.08;;;;;;;21.03;74.78;101544.13;7401819;19;19919;-76
2023/08/15 08:47:44;;;;;;;8.45;1.75;;;;;;;20.96;74.19;101538.75;7402711;19;19923;-76
2023/08/15 08:50:15;;;;;;;9.30;1.80;;;;;;;20.92;74.53;101544.91;7402769;19;19933;-76
2023/08/15 08:52:48;;;;;;;6.00;1.45;;;;;;;20.99;74.43;101545.66;7402596;19;19946;-76
2023/08/15 08:55:17;;;;;;;4.32;1.92;;;;;;;21.05;74.54;101555.72;7402830;19;20334;-76
2023/08/15 08:57:50;;;;;;;5.47;1.92;;;;;;;21.04;73.68;101549.38;7401524;19;19961;-76
2023/08/15 09:00:22;;;;;;;5.25;1.60;;;;;;;21.12;73.79;101538.16;7402208;19;19922;-76
2023/08/15 09:02:50;;;;;;;3.45;1.60;;;;;;;21.11;73.19;101544.66;7402442;19;20364;-75
2023/08/15 09:05:22;;;;;;;6.85;1.90;;;;;;;21.14;73.01;101544.22;7400895;19;19918;-75
2023/08/15 09:07:52;;;;;;;4.95;2.00;;;;;;;21.18;73.11;101566.53;7402215;19;19942;-76
2023/08/15 09:10:21;;;;;;;5.05;1.80;;;;;;;21.23;73.11;101547.47;7402496;19;20267;-76
2023/08/15 09:12:50;;;;;;;7.72;1.90;;;;;;;21.32;72.50;101551.56;7405719;19;19946;-76
2023/08/15 09:15:19;;;;;;;3.83;1.73;;;;;;;21.42;72.04;101542.81;7401080;19;19944;-77
2023/08/15 09:17:47;;;;;;;7.97;2.38;;;;;;;21.50;72.05;101547.97;7401153;19;19915;-76
2023/08/15 09:20:18;;;;;;;7.15;1.90;;;;;;;21.63;71.52;101545.88;7401681;19;19946;-76
2023/08/15 09:22:50;;;;;;;6.38;1.55;;;;;;;21.69;70.70;101552.34;7401768;19;19929;-76
2023/08/15 09:25:20;;;;;;;6.00;1.70;;;;;;;21.62;71.26;101549.69;7400452;19;20015;-75
2023/08/15 09:27:49;;;;;;;4.65;1.98;;;;;;;21.60;71.25;101549.09;7400989;19;20357;-76
2023/08/15 09:30:19;;;;;;;7.82;2.40;;;;;;;21.63;71.01;101545.88;7400698;19;19910;-75
2023/08/15 09:32:48;;;;;;;4.07;1.48;;;;;;;21.64;70.59;101555.78;7401111;19;19911;-77
2023/08/15 09:35:19;;;;;;;3.53;1.65;;;;;;;21.70;70.80;101563.06;7400611;19;19982;-76
2023/08/15 09:37:52;;;;;;;6.97;1.30;;;;;;;21.76;69.57;101563.19;7400597;19;19942;-76
2023/08/15 09:40:24;;;;;;;4.97;1.98;;;;;;;21.79;69.73;101560.81;7399917;19;19999;-76
2023/08/15 09:42:54;;;;;;;5.88;1.60;;;;;;;21.91;70.00;101552.63;7400678;19;20256;-75
2023/08/15 09:45:23;;;;;;;6.53;2.00;;;;;;;22.09;69.51;101560.81;7400077;19;19918;-76
2023/08/15 09:47:52;;;;;;;2.92;1.20;;;;;;;22.15;69.31;101551.63;7398442;19;19962;-77
2023/08/15 09:50:20;;;;;;;5.45;1.42;;;;;;;22.33;68.55;101554.28;7400518;19;19918;-76
2023/08/15 09:52:51;;;;;;;8.32;1.50;;;;;;;22.52;67.12;101555.81;7400577;19;19918;-76
2023/08/15 09:55:20;;;;;;;5.50;1.60;;;;;;;22.75;66.90;101563.25;7400543;19;19969;-76
2023/08/15 09:57:50;;;;;;;4.00;1.80;;;;;;;22.99;65.97;101561.31;7401095;19;19923;-76
2023/08/15 10:00:20;;;;;;;5.25;1.85;;;;;;;22.90;65.16;101566.34;7401410;19;19921;-76
2023/08/15 10:02:52;;;;;;;2.40;1.27;;;;;;;23.00;66.27;101566.53;7400177;19;19915;-76
2023/08/15 10:05:23;;;;;;;5.07;1.23;;;;;;;22.95;65.90;101574.66;7399939;19;19990;-76
2023/08/15 10:07:55;;;;;;;3.42;1.30;;;;;;;22.96;66.00;101578.25;7399804;19;20344;-76
2023/08/15 10:10:24;;;;;;;4.10;1.30;;;;;;;23.04;65.49;101577.88;7399646;19;19918;-76
2023/08/15 10:12:54;;;;;;;4.47;1.27;;;;;;;23.26;64.81;101584.41;7400363;19;20591;-76
2023/08/15 10:15:24;;;;;;;3.97;1.35;;;;;;;23.31;64.47;101586.41;7400280;19;19957;-76
2023/08/15 10:17:53;;;;;;;2.72;1.20;;;;;;;23.46;64.92;101581.28;7399661;19;19910;-76
2023/08/15 10:20:23;;;;;;;4.28;1.50;;;;;;;23.48;63.68;101587.34;7399792;19;20282;-77
2023/08/15 10:22:56;;;;;;;5.15;1.95;;;;;;;23.44;64.54;101598.00;7399479;19;19950;-76
2023/08/15 10:25:38;;;;;;;3.42;1.00;;;;;;;23.34;62.53;101597.75;7399184;19;20319;-76
2023/08/15 10:28:10;;;;;;;3.33;1.10;;;;;;;23.29;64.37;101605.94;7400151;19;19923;-76
2023/08/15 10:30:46;;;;;;;4.80;1.42;;;;;;;23.21;63.44;101600.78;7399270;19;20336;-76
2023/08/15 10:33:16;;;;;;;4.65;1.67;;;;;;;23.13;62.65;101605.81;7399012;19;20255;-76
2023/08/15 10:35:52;;;;;;;2.55;1.50;;;;;;;23.02;63.30;101610.28;7399441;19;20277;-76
2023/08/15 10:38:24;;;;;;;4.85;1.05;;;;;;;22.98;63.92;101611.84;7399074;19;19922;-76
2023/08/15 10:40:55;;;;;;;8.27;1.70;;;;;;;22.99;64.28;101617.09;7397927;19;20316;-77
2023/08/15 10:43:28;;;;;;;4.03;1.25;;;;;;;22.99;62.83;101619.84;7399394;19;19997;-76
2023/08/15 10:45:59;;;;;;;6.22;1.30;;;;;;;23.01;63.17;101614.94;7397902;19;20285;-77
2023/08/15 10:48:39;;;;;;;2.63;0.90;;;;;;;23.08;61.50;101629.38;7398830;19;19941;-77
2023/08/15 10:51:17;;;;;;;4.50;1.20;;;;;;;23.29;62.38;101633.44;7398828;19;19923;-75
2023/08/15 10:53:51;;;;;;;3.53;1.23;;;;;;;23.42;61.79;101627.66;7398464;19;19929;-77
2023/08/15 10:56:21;;;;;;;4.95;1.20;;;;;;;23.59;62.06;101622.25;7398381;19;19918;-75
2023/08/15 10:58:51;;;;;;;2.53;1.02;;;;;;;23.79;58.83;101627.31;7403921;19;20249;-78
2023/08/15 11:01:20;;;;;;;2.22;0.90;;;;;;;23.94;59.51;101633.94;7404716;19;19923;-77
2023/08/15 11:03:51;;;;;;;1.63;1.05;;;;;;;24.13;58.46;101633.69;7405731;19;19915;-76
2023/08/15 11:06:20;;;;;;;3.60;1.00;;;;;;;24.23;58.33;101623.75;7404260;19;19977;-76
2023/08/15 11:08:53;;;;;;;3.00;1.10;;;;;;;24.08;58.98;101650.97;7405434;19;19942;-76
2023/08/15 11:11:21;;;;;;;4.55;1.27;;;;;;;23.96;59.41;101639.19;7407631;19;19914;-76
2023/08/15 11:13:53;;;;;;;5.80;1.20;;;;;;;24.04;59.11;101635.19;7405787;19;20014;-77
2023/08/15 11:16:23;;;;;;;3.75;1.00;;;;;;;24.09;58.31;101638.88;7405381;19;20252;-76
2023/08/15 11:18:52;;;;;;;1.65;0.90;;;;;;;24.22;58.54;101638.59;7406878;19;19915;-77
2023/08/15 11:21:21;;;;;;;2.10;1.00;;;;;;;24.11;58.86;101644.16;7407480;19;20600;-77
2023/08/15 11:23:54;;;;;;;3.25;1.15;;;;;;;24.07;57.96;101649.31;7408143;19;19918;-77
2023/08/15 11:26:26;;;;;;;2.38;1.25;;;;;;;24.00;58.93;101645.03;7406964;19;19946;-77
2023/08/15 11:28:54;;;;;;;6.50;1.05;;;;;;;23.92;57.95;101647.09;7408201;19;19915;-76
2023/08/15 11:31:23;;;;;;;5.40;0.93;;;;;;;24.09;57.34;101652.66;7408976;19;19922;-77
2023/08/15 11:33:54;;;;;;;2.83;0.70;;;;;;;24.39;56.76;101655.13;7408669;19;19927;-76
2023/08/15 11:36:24;;;;;;;2.88;0.93;;;;;;;24.71;56.51;101653.47;7406130;19;19949;-76